sensor_id;sensor_type;location;lat;lon;timestamp;pressure;altitude;pressure_sealevel;temperature;humidity
59545;BME280;45368;55.002;-1.592;2022-11-30T00:01:53;101549.60;;;2.78;69.12
59545;BME280;45368;55.002;-1.592;2022-11-30T00:04:26;101558.93;;;1.95;71.95
59545;BME280;45368;55.002;-1.592;2022-11-30T00:06:53;101558.23;;;1.96;71.51
59545;BME280;45368;55.002;-1.592;2022-11-30T00:09:21;101566.40;;;1.65;73.37
59545;BME280;45368;55.002;-1.592;2022-11-30T00:11:48;101572.54;;;1.43;73.74
59545;BME280;45368;55.002;-1.592;2022-11-30T00:14:15;101567.80;;;1.51;74.61
59545;BME280;45368;55.002;-1.592;2022-11-30T00:16:56;101559.64;;;2.15;72.71
59545;BME280;45368;55.002;-1.592;2022-11-30T00:19:23;101559.02;;;1.57;74.03
59545;BME280;45368;55.002;-1.592;2022-11-30T00:21:50;101558.22;;;1.33;75.21
59545;BME280;45368;55.002;-1.592;2022-11-30T00:24:18;101563.84;;;1.31;75.22
59545;BME280;45368;55.002;-1.592;2022-11-30T00:26:53;101566.27;;;0.42;77.47
59545;BME280;45368;55.002;-1.592;2022-11-30T00:29:20;101570.55;;;0.70;78.77
59545;BME280;45368;55.002;-1.592;2022-11-30T00:31:47;101575.18;;;1.06;76.41
59545;BME280;45368;55.002;-1.592;2022-11-30T00:34:14;101575.40;;;0.32;78.97
59545;BME280;45368;55.002;-1.592;2022-11-30T00:36:42;101575.73;;;1.07;76.64
59545;BME280;45368;55.002;-1.592;2022-11-30T00:39:09;101576.24;;;1.05;76.35
59545;BME280;45368;55.002;-1.592;2022-11-30T00:41:36;101574.39;;;1.29;75.53
59545;BME280;45368;55.002;-1.592;2022-11-30T00:44:04;101571.14;;;0.90;76.52
59545;BME280;45368;55.002;-1.592;2022-11-30T00:46:31;101571.51;;;1.43;74.58
59545;BME280;45368;55.002;-1.592;2022-11-30T00:48:58;101575.44;;;1.35;74.47
59545;BME280;45368;55.002;-1.592;2022-11-30T00:51:25;101570.30;;;1.74;72.92
59545;BME280;45368;55.002;-1.592;2022-11-30T00:53:53;101565.13;;;2.17;71.89
59545;BME280;45368;55.002;-1.592;2022-11-30T00:56:20;101569.29;;;1.67;72.32
59545;BME280;45368;55.002;-1.592;2022-11-30T00:58:48;101572.27;;;0.71;76.18
59545;BME280;45368;55.002;-1.592;2022-11-30T01:01:15;101575.15;;;0.68;76.76
59545;BME280;45368;55.002;-1.592;2022-11-30T01:03:43;101573.05;;;1.02;75.97
59545;BME280;45368;55.002;-1.592;2022-11-30T01:06:10;101577.24;;;1.03;76.51
59545;BME280;45368;55.002;-1.592;2022-11-30T01:08:37;101574.17;;;1.56;73.16
59545;BME280;45368;55.002;-1.592;2022-11-30T01:11:14;101574.09;;;2.17;71.77
59545;BME280;45368;55.002;-1.592;2022-11-30T01:13:41;101564.19;;;2.40;69.87
59545;BME280;45368;55.002;-1.592;2022-11-30T01:16:28;101574.29;;;1.95;71.68
59545;BME280;45368;55.002;-1.592;2022-11-30T01:18:56;101570.91;;;2.08;71.16
59545;BME280;45368;55.002;-1.592;2022-11-30T01:21:25;101565.37;;;1.72;72.48
59545;BME280;45368;55.002;-1.592;2022-11-30T01:24:03;101563.62;;;1.86;72.21
59545;BME280;45368;55.002;-1.592;2022-11-30T01:26:30;101560.36;;;1.63;72.06
59545;BME280;45368;55.002;-1.592;2022-11-30T01:28:57;101563.17;;;2.05;71.66
59545;BME280;45368;55.002;-1.592;2022-11-30T01:31:33;101557.80;;;2.27;70.44
59545;BME280;45368;55.002;-1.592;2022-11-30T01:34:00;101558.86;;;2.83;69.54
59545;BME280;45368;55.002;-1.592;2022-11-30T01:36:27;101559.89;;;2.44;69.77
59545;BME280;45368;55.002;-1.592;2022-11-30T01:38:56;101559.79;;;2.58;69.67
59545;BME280;45368;55.002;-1.592;2022-11-30T01:41:25;101557.83;;;3.09;68.08
59545;BME280;45368;55.002;-1.592;2022-11-30T01:43:54;101555.96;;;3.15;67.52
59545;BME280;45368;55.002;-1.592;2022-11-30T01:46:33;101556.71;;;2.84;68.79
59545;BME280;45368;55.002;-1.592;2022-11-30T01:49:10;101556.91;;;3.01;67.86
59545;BME280;45368;55.002;-1.592;2022-11-30T01:51:48;101560.17;;;2.71;69.10
59545;BME280;45368;55.002;-1.592;2022-11-30T01:54:17;101560.43;;;2.47;68.11
59545;BME280;45368;55.002;-1.592;2022-11-30T01:56:48;101557.55;;;3.61;66.08
59545;BME280;45368;55.002;-1.592;2022-11-30T01:59:17;101554.38;;;4.12;64.26
59545;BME280;45368;55.002;-1.592;2022-11-30T02:01:47;101554.98;;;4.15;64.18
59545;BME280;45368;55.002;-1.592;2022-11-30T02:04:19;101562.91;;;2.56;66.98
59545;BME280;45368;55.002;-1.592;2022-11-30T02:06:47;101556.36;;;4.08;64.60
59545;BME280;45368;55.002;-1.592;2022-11-30T02:09:39;101568.38;;;3.55;65.18
59545;BME280;45368;55.002;-1.592;2022-11-30T02:12:14;101569.81;;;3.29;66.43
59545;BME280;45368;55.002;-1.592;2022-11-30T02:14:54;101578.96;;;1.43;70.48
59545;BME280;45368;55.002;-1.592;2022-11-30T02:17:30;101578.79;;;2.21;70.13
59545;BME280;45368;55.002;-1.592;2022-11-30T02:20:44;101572.45;;;2.41;68.62
59545;BME280;45368;55.002;-1.592;2022-11-30T02:23:25;101577.72;;;2.95;68.64
59545;BME280;45368;55.002;-1.592;2022-11-30T02:26:03;101590.05;;;1.61;71.87
59545;BME280;45368;55.002;-1.592;2022-11-30T02:28:47;101586.84;;;1.42;73.13
59545;BME280;45368;55.002;-1.592;2022-11-30T02:31:36;101590.52;;;1.25;74.59
59545;BME280;45368;55.002;-1.592;2022-11-30T02:34:06;101591.03;;;-0.43;78.29
59545;BME280;45368;55.002;-1.592;2022-11-30T02:36:36;101591.80;;;0.78;76.28
59545;BME280;45368;55.002;-1.592;2022-11-30T02:39:04;101588.16;;;1.17;75.87
59545;BME280;45368;55.002;-1.592;2022-11-30T02:41:36;101588.17;;;0.95;76.21
59545;BME280;45368;55.002;-1.592;2022-11-30T02:44:04;101587.40;;;0.69;74.74
59545;BME280;45368;55.002;-1.592;2022-11-30T02:46:37;101587.63;;;0.71;75.68
59545;BME280;45368;55.002;-1.592;2022-11-30T02:49:12;101586.60;;;1.00;74.40
59545;BME280;45368;55.002;-1.592;2022-11-30T02:51:45;101590.40;;;1.17;75.60
59545;BME280;45368;55.002;-1.592;2022-11-30T02:54:14;101591.40;;;0.70;75.44
59545;BME280;45368;55.002;-1.592;2022-11-30T02:56:47;101586.82;;;0.98;75.36
59545;BME280;45368;55.002;-1.592;2022-11-30T02:59:27;101588.34;;;-0.01;77.80
59545;BME280;45368;55.002;-1.592;2022-11-30T03:01:55;101593.55;;;0.35;77.55
59545;BME280;45368;55.002;-1.592;2022-11-30T03:04:22;101593.00;;;1.21;74.55
59545;BME280;45368;55.002;-1.592;2022-11-30T03:06:50;101590.22;;;1.57;72.89
59545;BME280;45368;55.002;-1.592;2022-11-30T03:09:17;101589.83;;;0.76;74.22
59545;BME280;45368;55.002;-1.592;2022-11-30T03:11:50;101592.19;;;0.75;75.76
59545;BME280;45368;55.002;-1.592;2022-11-30T03:14:26;101592.93;;;1.66;73.11
59545;BME280;45368;55.002;-1.592;2022-11-30T03:16:53;101598.66;;;1.72;71.94
59545;BME280;45368;55.002;-1.592;2022-11-30T03:19:20;101604.96;;;1.69;71.09
59545;BME280;45368;55.002;-1.592;2022-11-30T03:21:50;101608.58;;;1.48;71.75
59545;BME280;45368;55.002;-1.592;2022-11-30T03:24:17;101609.19;;;1.39;72.18
59545;BME280;45368;55.002;-1.592;2022-11-30T03:26:44;101604.32;;;1.63;71.79
59545;BME280;45368;55.002;-1.592;2022-11-30T03:29:11;101597.26;;;2.04;70.86
59545;BME280;45368;55.002;-1.592;2022-11-30T03:31:39;101596.43;;;2.05;70.19
59545;BME280;45368;55.002;-1.592;2022-11-30T03:34:12;101599.10;;;1.94;71.10
59545;BME280;45368;55.002;-1.592;2022-11-30T03:36:39;101600.12;;;2.49;69.44
59545;BME280;45368;55.002;-1.592;2022-11-30T03:39:07;101601.97;;;2.04;70.24
59545;BME280;45368;55.002;-1.592;2022-11-30T03:41:34;101602.74;;;2.03;69.97
59545;BME280;45368;55.002;-1.592;2022-11-30T03:44:02;101604.67;;;0.99;72.76
59545;BME280;45368;55.002;-1.592;2022-11-30T03:46:29;101604.19;;;1.60;72.38
59545;BME280;45368;55.002;-1.592;2022-11-30T03:48:57;101610.94;;;0.79;74.22
59545;BME280;45368;55.002;-1.592;2022-11-30T03:51:25;101611.03;;;0.68;74.59
59545;BME280;45368;55.002;-1.592;2022-11-30T03:53:52;101607.36;;;0.96;73.42
59545;BME280;45368;55.002;-1.592;2022-11-30T03:56:19;101608.75;;;1.00;74.35
59545;BME280;45368;55.002;-1.592;2022-11-30T03:58:47;101614.72;;;0.57;74.91
59545;BME280;45368;55.002;-1.592;2022-11-30T04:01:21;101618.97;;;0.96;74.27
59545;BME280;45368;55.002;-1.592;2022-11-30T04:03:49;101623.39;;;0.99;74.71
59545;BME280;45368;55.002;-1.592;2022-11-30T04:06:43;101624.51;;;1.07;74.42
59545;BME280;45368;55.002;-1.592;2022-11-30T04:09:11;101629.11;;;0.60;74.69
59545;BME280;45368;55.002;-1.592;2022-11-30T04:11:46;101625.18;;;0.81;73.99
59545;BME280;45368;55.002;-1.592;2022-11-30T04:14:29;101621.30;;;0.96;73.35
59545;BME280;45368;55.002;-1.592;2022-11-30T04:16:57;101620.19;;;1.76;71.59
59545;BME280;45368;55.002;-1.592;2022-11-30T04:19:24;101625.47;;;1.12;72.78
59545;BME280;45368;55.002;-1.592;2022-11-30T04:21:52;101623.17;;;1.99;71.57
59545;BME280;45368;55.002;-1.592;2022-11-30T04:24:19;101629.12;;;1.53;72.33
59545;BME280;45368;55.002;-1.592;2022-11-30T04:26:46;101634.68;;;0.53;74.75
59545;BME280;45368;55.002;-1.592;2022-11-30T04:29:14;101635.05;;;0.48;76.36
59545;BME280;45368;55.002;-1.592;2022-11-30T04:31:41;101631.79;;;0.93;75.41
59545;BME280;45368;55.002;-1.592;2022-11-30T04:34:09;101627.34;;;1.02;74.81
59545;BME280;45368;55.002;-1.592;2022-11-30T04:36:36;101630.69;;;1.83;71.66
59545;BME280;45368;55.002;-1.592;2022-11-30T04:39:03;101628.98;;;2.14;71.12
59545;BME280;45368;55.002;-1.592;2022-11-30T04:42:21;101632.63;;;1.36;74.12
59545;BME280;45368;55.002;-1.592;2022-11-30T04:44:48;101632.22;;;1.09;74.40
59545;BME280;45368;55.002;-1.592;2022-11-30T04:47:15;101632.58;;;1.10;74.05
59545;BME280;45368;55.002;-1.592;2022-11-30T04:49:43;101634.87;;;1.28;74.75
59545;BME280;45368;55.002;-1.592;2022-11-30T04:52:10;101638.38;;;0.21;77.29
59545;BME280;45368;55.002;-1.592;2022-11-30T04:54:37;101635.51;;;0.79;76.26
59545;BME280;45368;55.002;-1.592;2022-11-30T04:57:04;101634.71;;;0.30;78.82
59545;BME280;45368;55.002;-1.592;2022-11-30T04:59:31;101633.36;;;0.43;79.40
59545;BME280;45368;55.002;-1.592;2022-11-30T05:01:58;101633.13;;;0.54;79.06
59545;BME280;45368;55.002;-1.592;2022-11-30T05:04:26;101628.36;;;1.03;76.50
59545;BME280;45368;55.002;-1.592;2022-11-30T05:06:53;101630.58;;;0.61;78.16
59545;BME280;45368;55.002;-1.592;2022-11-30T05:09:20;101629.67;;;0.95;77.46
59545;BME280;45368;55.002;-1.592;2022-11-30T05:11:48;101636.06;;;0.41;78.56
59545;BME280;45368;55.002;-1.592;2022-11-30T05:14:15;101631.72;;;0.71;76.62
59545;BME280;45368;55.002;-1.592;2022-11-30T05:16:42;101629.06;;;1.15;75.85
59545;BME280;45368;55.002;-1.592;2022-11-30T05:19:09;101626.89;;;1.18;75.75
59545;BME280;45368;55.002;-1.592;2022-11-30T05:21:37;101626.25;;;1.36;76.00
59545;BME280;45368;55.002;-1.592;2022-11-30T05:24:04;101626.32;;;1.33;76.08
59545;BME280;45368;55.002;-1.592;2022-11-30T05:26:31;101628.28;;;1.11;76.06
59545;BME280;45368;55.002;-1.592;2022-11-30T05:28:59;101628.84;;;1.06;76.68
59545;BME280;45368;55.002;-1.592;2022-11-30T05:31:26;101627.03;;;1.25;75.88
59545;BME280;45368;55.002;-1.592;2022-11-30T05:33:54;101632.28;;;0.77;76.60
59545;BME280;45368;55.002;-1.592;2022-11-30T05:36:21;101634.51;;;1.03;76.38
59545;BME280;45368;55.002;-1.592;2022-11-30T05:38:48;101638.59;;;1.38;75.30
59545;BME280;45368;55.002;-1.592;2022-11-30T05:41:16;101646.85;;;0.58;76.71
59545;BME280;45368;55.002;-1.592;2022-11-30T05:43:43;101646.95;;;1.13;76.55
59545;BME280;45368;55.002;-1.592;2022-11-30T05:46:10;101649.17;;;0.79;76.96
59545;BME280;45368;55.002;-1.592;2022-11-30T05:48:37;101650.02;;;1.14;76.94
59545;BME280;45368;55.002;-1.592;2022-11-30T05:51:06;101656.09;;;0.84;77.31
59545;BME280;45368;55.002;-1.592;2022-11-30T05:53:33;101658.54;;;0.58;77.62
59545;BME280;45368;55.002;-1.592;2022-11-30T05:56:02;101657.32;;;0.73;78.69
59545;BME280;45368;55.002;-1.592;2022-11-30T05:58:30;101656.95;;;0.27;79.68
59545;BME280;45368;55.002;-1.592;2022-11-30T06:00:58;101656.63;;;0.89;78.10
59545;BME280;45368;55.002;-1.592;2022-11-30T06:03:27;101659.24;;;0.83;78.80
59545;BME280;45368;55.002;-1.592;2022-11-30T06:05:54;101657.29;;;1.52;75.39
59545;BME280;45368;55.002;-1.592;2022-11-30T06:08:21;101655.69;;;1.66;75.18
59545;BME280;45368;55.002;-1.592;2022-11-30T06:10:49;101655.23;;;1.15;75.67
59545;BME280;45368;55.002;-1.592;2022-11-30T06:13:38;101658.76;;;1.05;76.36
59545;BME280;45368;55.002;-1.592;2022-11-30T06:16:06;101660.68;;;1.91;73.68
59545;BME280;45368;55.002;-1.592;2022-11-30T06:18:34;101660.61;;;1.47;74.96
59545;BME280;45368;55.002;-1.592;2022-11-30T06:21:04;101667.37;;;1.89;73.89
59545;BME280;45368;55.002;-1.592;2022-11-30T06:23:32;101677.58;;;0.74;78.80
59545;BME280;45368;55.002;-1.592;2022-11-30T06:26:03;101678.63;;;1.19;77.24
59545;BME280;45368;55.002;-1.592;2022-11-30T06:28:31;101678.91;;;1.76;75.00
59545;BME280;45368;55.002;-1.592;2022-11-30T06:30:59;101679.34;;;1.63;74.78
59545;BME280;45368;55.002;-1.592;2022-11-30T06:33:27;101684.73;;;1.62;74.27
59545;BME280;45368;55.002;-1.592;2022-11-30T06:35:54;101682.09;;;1.15;77.19
59545;BME280;45368;55.002;-1.592;2022-11-30T06:38:22;101684.42;;;1.13;77.71
59545;BME280;45368;55.002;-1.592;2022-11-30T06:40:50;101689.74;;;1.07;78.56
59545;BME280;45368;55.002;-1.592;2022-11-30T06:43:17;101686.50;;;0.80;78.17
59545;BME280;45368;55.002;-1.592;2022-11-30T06:45:45;101689.52;;;1.81;76.16
59545;BME280;45368;55.002;-1.592;2022-11-30T06:48:13;101689.32;;;1.39;76.55
59545;BME280;45368;55.002;-1.592;2022-11-30T06:50:42;101687.69;;;1.37;76.31
59545;BME280;45368;55.002;-1.592;2022-11-30T06:53:09;101684.28;;;2.21;74.90
59545;BME280;45368;55.002;-1.592;2022-11-30T06:55:36;101682.99;;;1.43;75.07
59545;BME280;45368;55.002;-1.592;2022-11-30T06:58:05;101687.36;;;2.27;73.36
59545;BME280;45368;55.002;-1.592;2022-11-30T07:00:33;101686.60;;;2.71;71.77
59545;BME280;45368;55.002;-1.592;2022-11-30T07:03:00;101691.90;;;2.65;72.22
59545;BME280;45368;55.002;-1.592;2022-11-30T07:05:28;101690.25;;;3.09;70.12
59545;BME280;45368;55.002;-1.592;2022-11-30T07:07:56;101696.71;;;2.55;72.86
59545;BME280;45368;55.002;-1.592;2022-11-30T07:10:23;101691.08;;;2.96;72.34
59545;BME280;45368;55.002;-1.592;2022-11-30T07:13:37;101693.65;;;2.67;70.73
59545;BME280;45368;55.002;-1.592;2022-11-30T07:16:05;101699.75;;;1.84;73.88
59545;BME280;45368;55.002;-1.592;2022-11-30T07:18:33;101699.98;;;1.93;74.09
59545;BME280;45368;55.002;-1.592;2022-11-30T07:21:02;101705.07;;;2.04;74.20
59545;BME280;45368;55.002;-1.592;2022-11-30T07:23:30;101702.86;;;2.33;73.47
59545;BME280;45368;55.002;-1.592;2022-11-30T07:25:59;101707.45;;;1.54;76.52
59545;BME280;45368;55.002;-1.592;2022-11-30T07:28:27;101705.84;;;1.79;75.41
59545;BME280;45368;55.002;-1.592;2022-11-30T07:30:57;101712.21;;;1.92;75.00
59545;BME280;45368;55.002;-1.592;2022-11-30T07:33:25;101712.76;;;1.67;74.86
59545;BME280;45368;55.002;-1.592;2022-11-30T07:35:53;101719.96;;;2.17;74.05
59545;BME280;45368;55.002;-1.592;2022-11-30T07:38:20;101718.45;;;2.26;74.18
59545;BME280;45368;55.002;-1.592;2022-11-30T07:40:47;101718.82;;;2.60;73.01
59545;BME280;45368;55.002;-1.592;2022-11-30T07:43:14;101723.40;;;1.76;75.32
59545;BME280;45368;55.002;-1.592;2022-11-30T07:45:41;101722.86;;;1.87;76.86
59545;BME280;45368;55.002;-1.592;2022-11-30T07:48:09;101724.39;;;1.73;76.23
59545;BME280;45368;55.002;-1.592;2022-11-30T07:50:36;101724.29;;;2.39;74.96
59545;BME280;45368;55.002;-1.592;2022-11-30T07:53:03;101721.09;;;2.67;72.68
59545;BME280;45368;55.002;-1.592;2022-11-30T07:55:30;101720.65;;;3.00;71.64
59545;BME280;45368;55.002;-1.592;2022-11-30T07:57:58;101731.21;;;2.20;73.23
59545;BME280;45368;55.002;-1.592;2022-11-30T08:00:25;101734.52;;;2.39;73.91
59545;BME280;45368;55.002;-1.592;2022-11-30T08:02:53;101734.51;;;2.42;73.16
59545;BME280;45368;55.002;-1.592;2022-11-30T08:05:20;101737.42;;;1.82;76.11
59545;BME280;45368;55.002;-1.592;2022-11-30T08:07:49;101738.84;;;1.71;75.88
59545;BME280;45368;55.002;-1.592;2022-11-30T08:10:17;101740.84;;;2.01;75.25
59545;BME280;45368;55.002;-1.592;2022-11-30T08:12:44;101747.92;;;2.24;74.25
59545;BME280;45368;55.002;-1.592;2022-11-30T08:15:12;101745.05;;;2.47;73.31
59545;BME280;45368;55.002;-1.592;2022-11-30T08:17:40;101744.11;;;2.83;72.53
59545;BME280;45368;55.002;-1.592;2022-11-30T08:20:09;101745.50;;;2.79;71.77
59545;BME280;45368;55.002;-1.592;2022-11-30T08:22:36;101752.88;;;2.68;73.45
59545;BME280;45368;55.002;-1.592;2022-11-30T08:25:05;101751.60;;;2.62;73.18
59545;BME280;45368;55.002;-1.592;2022-11-30T08:27:32;101751.92;;;2.61;73.09
59545;BME280;45368;55.002;-1.592;2022-11-30T08:29:59;101759.77;;;2.09;75.04
59545;BME280;45368;55.002;-1.592;2022-11-30T08:32:27;101762.90;;;2.03;74.80
59545;BME280;45368;55.002;-1.592;2022-11-30T08:34:54;101762.56;;;2.98;72.75
59545;BME280;45368;55.002;-1.592;2022-11-30T08:37:21;101759.60;;;2.94;71.50
59545;BME280;45368;55.002;-1.592;2022-11-30T08:39:49;101766.18;;;2.49;73.59
59545;BME280;45368;55.002;-1.592;2022-11-30T08:42:16;101765.62;;;1.96;75.58
59545;BME280;45368;55.002;-1.592;2022-11-30T08:44:43;101762.22;;;2.63;73.18
59545;BME280;45368;55.002;-1.592;2022-11-30T08:47:10;101763.20;;;2.50;75.34
59545;BME280;45368;55.002;-1.592;2022-11-30T08:49:38;101764.82;;;3.05;72.40
59545;BME280;45368;55.002;-1.592;2022-11-30T08:52:05;101765.90;;;2.93;72.39
59545;BME280;45368;55.002;-1.592;2022-11-30T08:54:32;101757.99;;;3.07;72.37
59545;BME280;45368;55.002;-1.592;2022-11-30T08:57:00;101762.92;;;3.04;72.62
59545;BME280;45368;55.002;-1.592;2022-11-30T08:59:29;101765.02;;;2.52;73.64
59545;BME280;45368;55.002;-1.592;2022-11-30T09:01:56;101766.22;;;2.64;73.94
59545;BME280;45368;55.002;-1.592;2022-11-30T09:04:23;101761.65;;;1.85;77.23
59545;BME280;45368;55.002;-1.592;2022-11-30T09:06:50;101767.55;;;1.65;77.50
59545;BME280;45368;55.002;-1.592;2022-11-30T09:09:18;101765.96;;;2.06;76.41
59545;BME280;45368;55.002;-1.592;2022-11-30T09:11:45;101766.09;;;1.88;75.34
59545;BME280;45368;55.002;-1.592;2022-11-30T09:14:12;101767.59;;;2.21;75.58
59545;BME280;45368;55.002;-1.592;2022-11-30T09:16:38;101771.46;;;2.07;76.10
59545;BME280;45368;55.002;-1.592;2022-11-30T09:19:06;101773.80;;;2.17;75.79
59545;BME280;45368;55.002;-1.592;2022-11-30T09:21:32;101777.59;;;2.72;75.59
59545;BME280;45368;55.002;-1.592;2022-11-30T09:24:00;101780.12;;;2.41;75.92
59545;BME280;45368;55.002;-1.592;2022-11-30T09:26:27;101782.07;;;2.50;75.38
59545;BME280;45368;55.002;-1.592;2022-11-30T09:28:54;101788.68;;;2.56;74.97
59545;BME280;45368;55.002;-1.592;2022-11-30T09:31:23;101787.99;;;2.77;74.95
59545;BME280;45368;55.002;-1.592;2022-11-30T09:33:52;101789.06;;;1.19;80.41
59545;BME280;45368;55.002;-1.592;2022-11-30T09:36:22;101783.53;;;2.25;76.37
59545;BME280;45368;55.002;-1.592;2022-11-30T09:38:49;101783.66;;;2.17;76.69
59545;BME280;45368;55.002;-1.592;2022-11-30T09:41:35;101787.63;;;1.45;79.20
59545;BME280;45368;55.002;-1.592;2022-11-30T09:44:11;101790.33;;;1.22;80.23
59545;BME280;45368;55.002;-1.592;2022-11-30T09:46:45;101796.99;;;1.49;79.53
59545;BME280;45368;55.002;-1.592;2022-11-30T09:49:17;101794.16;;;1.41;79.58
59545;BME280;45368;55.002;-1.592;2022-11-30T09:51:47;101790.67;;;1.84;77.89
59545;BME280;45368;55.002;-1.592;2022-11-30T09:54:16;101794.79;;;1.81;78.45
59545;BME280;45368;55.002;-1.592;2022-11-30T09:56:45;101799.55;;;1.38;79.25
59545;BME280;45368;55.002;-1.592;2022-11-30T09:59:17;101800.32;;;1.23;79.48
59545;BME280;45368;55.002;-1.592;2022-11-30T10:01:46;101804.64;;;1.26;80.08
59545;BME280;45368;55.002;-1.592;2022-11-30T10:04:20;101801.58;;;1.26;79.62
59545;BME280;45368;55.002;-1.592;2022-11-30T10:06:56;101801.82;;;1.66;77.35
59545;BME280;45368;55.002;-1.592;2022-11-30T10:09:32;101809.29;;;1.63;76.89
59545;BME280;45368;55.002;-1.592;2022-11-30T10:12:06;101811.95;;;1.50;77.70
59545;BME280;45368;55.002;-1.592;2022-11-30T10:14:51;101814.39;;;2.11;76.21
59545;BME280;45368;55.002;-1.592;2022-11-30T10:17:33;101818.47;;;1.48;77.14
59545;BME280;45368;55.002;-1.592;2022-11-30T10:20:15;101819.40;;;1.47;77.81
59545;BME280;45368;55.002;-1.592;2022-11-30T10:23:00;101820.87;;;1.82;78.26
59545;BME280;45368;55.002;-1.592;2022-11-30T10:25:39;101823.16;;;1.68;77.68
59545;BME280;45368;55.002;-1.592;2022-11-30T10:28:15;101826.86;;;1.50;78.87
59545;BME280;45368;55.002;-1.592;2022-11-30T10:30:44;101835.18;;;1.18;79.11
59545;BME280;45368;55.002;-1.592;2022-11-30T10:33:16;101830.61;;;2.06;75.94
59545;BME280;45368;55.002;-1.592;2022-11-30T10:35:46;101833.09;;;1.97;75.73
59545;BME280;45368;55.002;-1.592;2022-11-30T10:38:20;101837.22;;;1.29;77.96
59545;BME280;45368;55.002;-1.592;2022-11-30T10:40:52;101839.67;;;1.46;78.18
59545;BME280;45368;55.002;-1.592;2022-11-30T10:43:26;101840.80;;;1.73;77.21
59545;BME280;45368;55.002;-1.592;2022-11-30T10:45:55;101838.64;;;1.47;76.59
59545;BME280;45368;55.002;-1.592;2022-11-30T10:48:29;101840.78;;;1.55;77.02
59545;BME280;45368;55.002;-1.592;2022-11-30T10:50:59;101842.91;;;1.78;77.10
59545;BME280;45368;55.002;-1.592;2022-11-30T10:53:28;101844.61;;;1.50;76.52
59545;BME280;45368;55.002;-1.592;2022-11-30T10:56:00;101850.34;;;0.88;78.72
59545;BME280;45368;55.002;-1.592;2022-11-30T10:58:32;101856.89;;;0.54;79.55
59545;BME280;45368;55.002;-1.592;2022-11-30T11:01:03;101852.55;;;0.71;80.32
59545;BME280;45368;55.002;-1.592;2022-11-30T11:03:31;101850.18;;;0.94;78.70
59545;BME280;45368;55.002;-1.592;2022-11-30T11:06:05;101852.56;;;0.65;80.69
59545;BME280;45368;55.002;-1.592;2022-11-30T11:08:33;101851.11;;;0.61;81.02
59545;BME280;45368;55.002;-1.592;2022-11-30T11:11:00;101849.08;;;0.53;80.13
59545;BME280;45368;55.002;-1.592;2022-11-30T11:13:39;101854.85;;;0.51;80.83
59545;BME280;45368;55.002;-1.592;2022-11-30T11:16:10;101846.42;;;1.32;77.47
59545;BME280;45368;55.002;-1.592;2022-11-30T11:18:51;101845.20;;;0.63;80.47
59545;BME280;45368;55.002;-1.592;2022-11-30T11:21:21;101846.59;;;1.01;79.63
59545;BME280;45368;55.002;-1.592;2022-11-30T11:23:50;101839.78;;;0.94;79.04
59545;BME280;45368;55.002;-1.592;2022-11-30T11:26:21;101838.70;;;1.13;78.25
59545;BME280;45368;55.002;-1.592;2022-11-30T11:28:50;101841.45;;;0.52;79.52
59545;BME280;45368;55.002;-1.592;2022-11-30T11:31:32;101843.38;;;1.33;78.31
59545;BME280;45368;55.002;-1.592;2022-11-30T11:33:59;101838.14;;;1.82;76.83
59545;BME280;45368;55.002;-1.592;2022-11-30T11:36:28;101838.55;;;1.20;76.78
59545;BME280;45368;55.002;-1.592;2022-11-30T11:38:57;101841.05;;;1.74;76.27
59545;BME280;45368;55.002;-1.592;2022-11-30T11:41:26;101844.69;;;1.31;77.17
59545;BME280;45368;55.002;-1.592;2022-11-30T11:44:00;101843.25;;;0.91;77.89
59545;BME280;45368;55.002;-1.592;2022-11-30T11:46:28;101839.70;;;1.76;76.33
59545;BME280;45368;55.002;-1.592;2022-11-30T11:48:57;101838.33;;;1.44;76.49
59545;BME280;45368;55.002;-1.592;2022-11-30T11:51:32;101845.64;;;1.14;76.96
59545;BME280;45368;55.002;-1.592;2022-11-30T11:54:05;101843.86;;;2.00;76.23
59545;BME280;45368;55.002;-1.592;2022-11-30T11:56:34;101846.68;;;1.29;76.51
59545;BME280;45368;55.002;-1.592;2022-11-30T11:59:11;101844.79;;;2.10;75.12
59545;BME280;45368;55.002;-1.592;2022-11-30T12:01:47;101842.62;;;1.19;77.37
59545;BME280;45368;55.002;-1.592;2022-11-30T12:04:31;101838.04;;;1.47;77.38
59545;BME280;45368;55.002;-1.592;2022-11-30T12:07:13;101835.04;;;1.91;75.36
59545;BME280;45368;55.002;-1.592;2022-11-30T12:09:51;101831.60;;;1.83;74.96
59545;BME280;45368;55.002;-1.592;2022-11-30T12:12:21;101827.59;;;1.51;76.56
59545;BME280;45368;55.002;-1.592;2022-11-30T12:14:48;101832.15;;;1.38;77.34
59545;BME280;45368;55.002;-1.592;2022-11-30T12:17:28;101830.24;;;2.42;74.77
59545;BME280;45368;55.002;-1.592;2022-11-30T12:20:05;101826.22;;;1.75;75.03
59545;BME280;45368;55.002;-1.592;2022-11-30T12:22:49;101830.16;;;1.18;76.98
59545;BME280;45368;55.002;-1.592;2022-11-30T12:25:25;101832.11;;;1.25;78.18
59545;BME280;45368;55.002;-1.592;2022-11-30T12:28:00;101829.02;;;1.72;76.09
59545;BME280;45368;55.002;-1.592;2022-11-30T12:30:41;101830.57;;;1.98;74.33
59545;BME280;45368;55.002;-1.592;2022-11-30T12:33:21;101830.00;;;1.46;75.28
59545;BME280;45368;55.002;-1.592;2022-11-30T12:35:59;101833.45;;;3.14;72.07
59545;BME280;45368;55.002;-1.592;2022-11-30T12:38:38;101838.17;;;2.02;73.52
59545;BME280;45368;55.002;-1.592;2022-11-30T12:41:37;101838.86;;;1.53;76.37
59545;BME280;45368;55.002;-1.592;2022-11-30T12:44:21;101846.37;;;1.21;77.96
59545;BME280;45368;55.002;-1.592;2022-11-30T12:46:56;101846.74;;;1.31;78.22
59545;BME280;45368;55.002;-1.592;2022-11-30T12:49:39;101841.23;;;1.77;75.60
59545;BME280;45368;55.002;-1.592;2022-11-30T12:52:21;101838.92;;;2.28;74.29
59545;BME280;45368;55.002;-1.592;2022-11-30T12:54:58;101837.20;;;2.10;74.64
59545;BME280;45368;55.002;-1.592;2022-11-30T12:57:34;101835.72;;;1.49;76.76
59545;BME280;45368;55.002;-1.592;2022-11-30T13:00:09;101837.34;;;2.53;74.58
59545;BME280;45368;55.002;-1.592;2022-11-30T13:02:54;101832.33;;;2.73;73.11
59545;BME280;45368;55.002;-1.592;2022-11-30T13:05:31;101835.73;;;1.92;74.39
59545;BME280;45368;55.002;-1.592;2022-11-30T13:08:06;101829.90;;;1.41;75.88
59545;BME280;45368;55.002;-1.592;2022-11-30T13:10:42;101832.39;;;1.99;75.94